Time,TemperatureF,DewpointF,PressureIn,WindDirection,WindDirectionDegrees,WindSpeedMPH,WindSpeedGustMPH,Humidity,HourlyPrecipIn,Conditions,Clouds,dailyrainin,SoftwareType,DateUTC
2013-09-16 00:09:00,44.9,42.0,29.99,NNW,343,1.0,5.0,89,0.00,,,0.00,weatherlink.com 1.10,2013-09-16 06:09:00,
2013-09-16 00:24:00,44.1,41.0,29.99,NW,314,0.0,3.0,90,0.00,,,0.00,weatherlink.com 1.10,2013-09-16 06:24:00,
2013-09-16 00:40:00,44.0,41.0,30.00,NNE,21,0.0,2.0,90,0.00,,,0.00,weatherlink.com 1.10,2013-09-16 06:40:00,
2013-09-16 00:55:00,44.1,42.0,30.00,South,183,0.0,2.0,91,0.00,,,0.00,weatherlink.com 1.10,2013-09-16 06:55:00,
2013-09-16 01:10:00,43.5,41.0,30.00,SW,221,1.0,1.0,92,0.00,,,0.00,weatherlink.com 1.10,2013-09-16 07:10:00,
2013-09-16 01:25:00,43.7,42.0,30.00,East,100,1.0,2.0,93,0.00,,,0.00,weatherlink.com 1.10,2013-09-16 07:25:00,
2013-09-16 01:40:00,43.9,42.0,30.00,ESE,108,0.0,0.0,92,0.00,,,0.00,weatherlink.com 1.10,2013-09-16 07:40:00,
2013-09-16 01:55:00,43.3,41.0,30.01,WNW,285,2.0,2.0,92,0.00,,,0.00,weatherlink.com 1.10,2013-09-16 07:55:00,
2013-09-16 02:10:00,42.8,41.0,30.00,North,352,3.0,4.0,92,0.00,,,0.00,weatherlink.com 1.10,2013-09-16 08:10:00,
2013-09-16 02:25:00,42.2,40.0,30.01,NW,305,0.0,2.0,92,0.00,,,0.00,weatherlink.com 1.10,2013-09-16 08:25:00,
2013-09-16 02:40:00,41.7,40.0,30.01,NW,305,0.0,0.0,92,0.00,,,0.00,weatherlink.com 1.10,2013-09-16 08:40:00,
2013-09-16 02:55:00,41.5,40.0,30.01,NW,305,0.0,0.0,93,0.00,,,0.00,weatherlink.com 1.10,2013-09-16 08:55:00,
2013-09-16 03:10:00,41.2,39.0,30.01,WNW,293,1.0,1.0,93,0.00,,,0.00,weatherlink.com 1.10,2013-09-16 09:10:00,
2013-09-16 03:25:00,40.0,38.0,30.01,WNW,284,0.0,0.0,93,0.00,,,0.00,weatherlink.com 1.10,2013-09-16 09:25:00,
2013-09-16 03:40:00,39.9,39.0,30.02,NNW,343,0.0,0.0,95,0.00,,,0.00,weatherlink.com 1.10,2013-09-16 09:40:00,
2013-09-16 03:55:00,41.1,40.0,30.02,NNW,327,2.0,3.0,94,0.00,,,0.00,weatherlink.com 1.10,2013-09-16 09:55:00,
2013-09-16 04:10:00,41.6,40.0,30.03,NNW,346,2.0,4.0,93,0.00,,,0.00,weatherlink.com 1.10,2013-09-16 10:10:00,
2013-09-16 04:25:00,42.3,41.0,30.02,NW,313,1.0,5.0,93,0.02,,,0.02,weatherlink.com 1.10,2013-09-16 10:25:00,
2013-09-16 04:40:00,42.0,40.0,30.02,West,264,2.0,5.0,93,0.03,,,0.03,weatherlink.com 1.10,2013-09-16 10:40:00,
2013-09-16 04:55:00,42.5,40.0,30.03,North,360,1.0,6.0,92,0.03,,,0.03,weatherlink.com 1.10,2013-09-16 10:55:00,
2013-09-16 05:10:00,42.4,41.0,30.03,NNE,32,1.0,4.0,93,0.03,,,0.03,weatherlink.com 1.10,2013-09-16 11:10:00,
2013-09-16 05:25:00,42.4,40.0,30.03,NNW,348,2.0,6.0,92,0.01,,,0.03,weatherlink.com 1.10,2013-09-16 11:25:00,
2013-09-16 05:40:00,41.9,40.0,30.03,WNW,287,0.0,2.0,92,0.00,,,0.03,weatherlink.com 1.10,2013-09-16 11:40:00,
2013-09-16 05:55:00,41.9,40.0,30.03,NW,319,1.0,2.0,93,0.00,,,0.03,weatherlink.com 1.10,2013-09-16 11:55:00,
2013-09-16 06:10:00,42.3,41.0,30.04,NW,305,4.0,5.0,93,0.00,,,0.03,weatherlink.com 1.10,2013-09-16 12:10:00,
2013-09-16 06:25:00,42.3,40.0,30.04,NNE,15,3.0,4.0,91,0.00,,,0.03,weatherlink.com 1.10,2013-09-16 12:25:00,
2013-09-16 06:40:00,42.5,40.0,30.04,West,278,0.0,5.0,91,0.00,,,0.03,weatherlink.com 1.10,2013-09-16 12:40:00,
2013-09-16 06:55:00,42.4,40.0,30.05,NW,319,0.0,4.0,91,0.00,,,0.03,weatherlink.com 1.10,2013-09-16 12:55:00,
2013-09-16 07:10:00,42.4,40.0,30.05,NW,322,5.0,5.0,92,0.00,,,0.03,weatherlink.com 1.10,2013-09-16 13:10:00,
2013-09-16 07:25:00,42.4,40.0,30.06,NW,316,0.0,4.0,91,0.00,,,0.03,weatherlink.com 1.10,2013-09-16 13:25:00,
2013-09-16 07:40:00,42.9,41.0,30.06,NW,319,2.0,5.0,91,0.00,,,0.03,weatherlink.com 1.10,2013-09-16 13:40:00,
2013-09-16 07:55:00,43.1,40.0,30.06,NNW,342,1.0,4.0,90,0.00,,,0.03,weatherlink.com 1.10,2013-09-16 13:55:00,
2013-09-16 08:10:00,42.7,40.0,30.06,NW,314,3.0,4.0,91,0.00,,,0.03,weatherlink.com 1.10,2013-09-16 14:10:00,
2013-09-16 08:25:00,44.0,41.0,30.06,NNW,346,3.0,5.0,89,0.00,,,0.03,weatherlink.com 1.10,2013-09-16 14:25:00,
2013-09-16 08:40:00,44.5,42.0,30.06,NNE,33,0.0,3.0,90,0.00,,,0.03,weatherlink.com 1.10,2013-09-16 14:40:00,
2013-09-16 08:55:00,45.2,42.0,30.06,NNE,32,0.0,3.0,89,0.00,,,0.03,weatherlink.com 1.10,2013-09-16 14:55:00,
2013-09-16 09:11:00,45.9,42.0,30.06,NNE,18,0.0,4.0,87,0.00,,,0.03,weatherlink.com 1.10,2013-09-16 15:11:00,
2013-09-16 09:26:00,46.7,43.0,30.07,ESE,108,0.0,1.0,88,0.00,,,0.03,weatherlink.com 1.10,2013-09-16 15:26:00,
2013-09-16 09:41:00,47.7,43.0,30.07,SW,225,1.0,5.0,84,0.00,,,0.03,weatherlink.com 1.10,2013-09-16 15:41:00,
2013-09-16 09:56:00,48.9,44.0,30.07,WSW,257,0.0,3.0,84,0.00,,,0.03,weatherlink.com 1.10,2013-09-16 15:56:00,
2013-09-16 10:11:00,50.5,45.0,30.06,SSE,150,0.0,7.0,82,0.00,,,0.03,weatherlink.com 1.10,2013-09-16 16:11:00,
2013-09-16 10:26:00,51.7,45.0,30.05,NNE,25,0.0,2.0,79,0.00,,,0.03,weatherlink.com 1.10,2013-09-16 16:26:00,
2013-09-16 10:41:00,52.7,46.0,30.04,ESE,105,0.0,6.0,77,0.00,,,0.03,weatherlink.com 1.10,2013-09-16 16:41:00,
2013-09-16 10:56:00,54.1,46.0,30.03,South,170,2.0,4.0,75,0.00,,,0.03,weatherlink.com 1.10,2013-09-16 16:56:00,
2013-09-16 11:11:00,55.6,47.0,30.02,SSE,163,2.0,5.0,73,0.00,,,0.03,weatherlink.com 1.10,2013-09-16 17:11:00,
2013-09-16 11:26:00,57.4,48.0,30.01,SE,143,1.0,6.0,72,0.00,,,0.03,weatherlink.com 1.10,2013-09-16 17:26:00,
2013-09-16 11:41:00,59.2,49.0,30.00,South,174,0.0,3.0,70,0.00,,,0.03,weatherlink.com 1.10,2013-09-16 17:41:00,
2013-09-16 11:56:00,60.5,51.0,29.99,SW,228,3.0,7.0,71,0.00,,,0.03,weatherlink.com 1.10,2013-09-16 17:56:00,
2013-09-16 12:11:00,61.7,49.0,29.98,SSE,158,8.0,9.0,63,0.00,,,0.03,weatherlink.com 1.10,2013-09-16 18:11:00,
2013-09-16 12:26:00,62.2,47.0,29.97,SSW,197,3.0,10.0,57,0.00,,,0.03,weatherlink.com 1.10,2013-09-16 18:26:00,
2013-09-16 12:41:00,62.4,45.0,29.96,SSE,147,3.0,12.0,54,0.00,,,0.03,weatherlink.com 1.10,2013-09-16 18:41:00,
2013-09-16 12:56:00,60.6,45.0,29.95,SE,131,2.0,7.0,57,0.00,,,0.03,weatherlink.com 1.10,2013-09-16 18:56:00,
2013-09-16 13:11:00,61.9,46.0,29.95,North,359,2.0,4.0,56,0.00,,,0.03,weatherlink.com 1.10,2013-09-16 19:11:00,
2013-09-16 13:26:00,58.8,44.0,29.95,NW,315,3.0,11.0,58,0.01,,,0.04,weatherlink.com 1.10,2013-09-16 19:26:00,
2013-09-16 13:41:00,58.5,48.0,29.94,NE,47,5.0,10.0,68,0.01,,,0.04,weatherlink.com 1.10,2013-09-16 19:41:00,
2013-09-16 13:56:00,61.8,44.0,29.93,West,264,1.0,4.0,52,0.01,,,0.04,weatherlink.com 1.10,2013-09-16 19:56:00,
2013-09-16 14:12:00,62.8,43.0,29.92,East,96,6.0,9.0,48,0.01,,,0.04,weatherlink.com 1.10,2013-09-16 20:12:00,
2013-09-16 14:27:00,62.9,46.0,29.92,SSE,149,7.0,14.0,55,0.00,,,0.04,weatherlink.com 1.10,2013-09-16 20:27:00,
2013-09-16 14:42:00,62.9,45.0,29.91,SE,139,7.0,12.0,53,0.00,,,0.04,weatherlink.com 1.10,2013-09-16 20:42:00,
2013-09-16 14:57:00,62.9,47.0,29.90,East,86,4.0,7.0,56,0.00,,,0.04,weatherlink.com 1.10,2013-09-16 20:57:00,
2013-09-16 15:12:00,64.2,46.0,29.89,SE,139,6.0,9.0,52,0.00,,,0.04,weatherlink.com 1.10,2013-09-16 21:12:00,
2013-09-16 15:27:00,63.5,47.0,29.88,SSE,158,6.0,9.0,55,0.00,,,0.04,weatherlink.com 1.10,2013-09-16 21:27:00,
2013-09-16 15:42:00,64.4,46.0,29.87,SW,219,1.0,6.0,51,0.00,,,0.04,weatherlink.com 1.10,2013-09-16 21:42:00,
2013-09-16 15:57:00,62.6,45.0,29.87,SW,226,2.0,4.0,52,0.00,,,0.04,weatherlink.com 1.10,2013-09-16 21:57:00,
2013-09-16 16:12:00,57.7,44.0,29.88,WSW,246,10.0,18.0,61,0.02,,,0.06,weatherlink.com 1.10,2013-09-16 22:12:00,
2013-09-16 16:27:00,55.5,46.0,29.89,WNW,294,2.0,10.0,71,0.07,,,0.11,weatherlink.com 1.10,2013-09-16 22:27:00,
2013-09-16 16:42:00,57.0,47.0,29.88,WNW,297,2.0,4.0,69,0.07,,,0.11,weatherlink.com 1.10,2013-09-16 22:42:00,
2013-09-16 16:57:00,59.8,49.0,29.88,ENE,59,2.0,5.0,68,0.07,,,0.11,weatherlink.com 1.10,2013-09-16 22:57:00,
2013-09-16 17:12:00,60.3,48.0,29.89,SE,136,3.0,7.0,64,0.04,,,0.11,weatherlink.com 1.10,2013-09-16 23:12:00,
2013-09-16 17:27:00,59.6,45.0,29.90,NNW,333,3.0,8.0,60,0.00,,,0.11,weatherlink.com 1.10,2013-09-16 23:27:00,
2013-09-16 17:42:00,55.9,46.0,29.91,NW,321,3.0,10.0,70,0.00,,,0.11,weatherlink.com 1.10,2013-09-16 23:42:00,
2013-09-16 17:57:00,54.5,47.0,29.91,NNW,327,2.0,11.0,75,0.00,,,0.11,weatherlink.com 1.10,2013-09-16 23:57:00,
2013-09-16 18:12:00,53.1,47.0,29.91,NW,324,5.0,7.0,79,0.00,,,0.11,weatherlink.com 1.10,2013-09-17 00:12:00,
2013-09-16 18:28:00,52.4,47.0,29.92,SW,226,2.0,4.0,82,0.01,,,0.12,weatherlink.com 1.10,2013-09-17 00:28:00,
2013-09-16 18:42:00,53.0,47.0,29.91,SSW,203,1.0,4.0,81,0.01,,,0.12,weatherlink.com 1.10,2013-09-17 00:42:00,
2013-09-16 18:58:00,53.1,47.0,29.91,ESE,109,0.0,0.0,81,0.01,,,0.12,weatherlink.com 1.10,2013-09-17 00:58:00,
2013-09-16 19:12:00,52.8,47.0,29.91,NNE,23,0.0,1.0,82,0.01,,,0.12,weatherlink.com 1.10,2013-09-17 01:12:00,
2013-09-16 19:27:00,51.9,48.0,29.91,WSW,258,1.0,2.0,86,0.00,,,0.12,weatherlink.com 1.10,2013-09-17 01:27:00,
2013-09-16 19:42:00,51.3,49.0,29.92,WSW,258,0.0,0.0,90,0.00,,,0.12,weatherlink.com 1.10,2013-09-17 01:42:00,
2013-09-16 19:57:00,51.0,48.0,29.92,WSW,243,0.0,1.0,90,0.00,,,0.12,weatherlink.com 1.10,2013-09-17 01:57:00,
2013-09-16 20:12:00,50.7,48.0,29.93,NW,321,2.0,3.0,89,0.00,,,0.12,weatherlink.com 1.10,2013-09-17 02:12:00,
2013-09-16 20:27:00,50.5,48.0,29.95,NNW,342,0.0,1.0,90,0.00,,,0.12,weatherlink.com 1.10,2013-09-17 02:27:00,
2013-09-16 20:42:00,50.3,48.0,29.95,NW,319,0.0,0.0,91,0.00,,,0.12,weatherlink.com 1.10,2013-09-17 02:42:00,
2013-09-16 20:57:00,49.6,47.0,29.96,NW,319,0.0,0.0,92,0.00,,,0.12,weatherlink.com 1.10,2013-09-17 02:57:00,
2013-09-16 21:12:00,48.7,47.0,29.96,NW,318,0.0,0.0,93,0.00,,,0.12,weatherlink.com 1.10,2013-09-17 03:12:00,
2013-09-16 21:27:00,48.3,46.0,29.97,WNW,302,0.0,0.0,92,0.00,,,0.12,weatherlink.com 1.10,2013-09-17 03:27:00,
2013-09-16 21:42:00,47.9,46.0,29.97,NNW,333,0.0,0.0,92,0.00,,,0.12,weatherlink.com 1.10,2013-09-17 03:42:00,
2013-09-16 21:57:00,47.1,45.0,29.97,NNW,335,0.0,0.0,93,0.00,,,0.12,weatherlink.com 1.10,2013-09-17 03:57:00,
2013-09-16 22:12:00,46.8,45.0,29.97,NNW,338,0.0,0.0,93,0.00,,,0.12,weatherlink.com 1.10,2013-09-17 04:12:00,
2013-09-16 22:27:00,45.9,44.0,29.98,WNW,294,0.0,2.0,92,0.00,,,0.12,weatherlink.com 1.10,2013-09-17 04:27:00,
2013-09-16 22:42:00,45.5,44.0,29.98,SW,235,0.0,1.0,93,0.00,,,0.12,weatherlink.com 1.10,2013-09-17 04:42:00,
2013-09-16 22:57:00,44.5,43.0,29.99,SE,127,0.0,0.0,94,0.00,,,0.12,weatherlink.com 1.10,2013-09-17 04:57:00,
2013-09-16 23:12:00,44.0,42.0,29.99,SE,127,0.0,0.0,94,0.00,,,0.12,weatherlink.com 1.10,2013-09-17 05:12:00,
2013-09-16 23:27:00,44.0,43.0,30.00,WNW,297,0.0,0.0,95,0.00,,,0.12,weatherlink.com 1.10,2013-09-17 05:27:00,
2013-09-16 23:42:00,43.7,42.0,30.00,NNW,330,1.0,1.0,95,0.00,,,0.12,weatherlink.com 1.10,2013-09-17 05:42:00,
2013-09-16 23:57:00,43.4,42.0,30.00,North,354,0.0,2.0,95,0.00,,,0.12,weatherlink.com 1.10,2013-09-17 05:57:00,